createdAt,value
2017-10-20T00:00:13.557Z,77.00
2017-10-20T00:02:39.945Z,77.20
2017-10-20T00:05:06.353Z,77.00
2017-10-20T00:07:32.764Z,76.80
2017-10-20T00:09:59.906Z,76.90
2017-10-20T00:12:27.039Z,76.30
2017-10-20T00:14:53.455Z,76.50
2017-10-20T00:17:19.906Z,76.10
2017-10-20T00:19:46.334Z,76.20
2017-10-20T00:22:12.747Z,76.50
2017-10-20T00:24:39.166Z,76.30
2017-10-20T00:27:05.595Z,76.70
2017-10-20T00:29:31.993Z,76.90
2017-10-20T00:31:58.398Z,77.40
2017-10-20T00:34:24.823Z,77.70
2017-10-20T00:36:51.250Z,77.50
2017-10-20T00:39:17.673Z,78.00
2017-10-20T00:41:44.075Z,78.30
2017-10-20T00:44:10.519Z,78.70
2017-10-20T00:46:37.003Z,78.70
2017-10-20T00:49:03.405Z,79.00
2017-10-20T00:51:29.816Z,79.00
2017-10-20T00:53:56.244Z,78.80
2017-10-20T00:56:22.680Z,78.60
2017-10-20T00:58:49.119Z,78.50
2017-10-20T01:01:15.605Z,78.80
2017-10-20T01:03:42.799Z,78.20
2017-10-20T01:06:09.224Z,78.20
2017-10-20T01:08:35.640Z,78.30
2017-10-20T01:11:02.792Z,78.50
2017-10-20T01:13:29.921Z,78.70
2017-10-20T01:15:56.378Z,78.80
2017-10-20T01:18:23.625Z,79.20
2017-10-20T01:20:50.820Z,79.20
2017-10-20T01:23:17.277Z,79.10
2017-10-20T01:25:43.756Z,79.40
2017-10-20T01:28:10.203Z,79.40
2017-10-20T01:30:36.652Z,79.40
2017-10-20T01:33:03.116Z,79.60
2017-10-20T01:35:29.556Z,79.60
2017-10-20T01:37:57.518Z,79.70
2017-10-20T01:40:23.969Z,79.70
2017-10-20T01:42:51.152Z,79.50
2017-10-20T01:45:17.595Z,79.40
2017-10-20T01:47:44.054Z,79.60
2017-10-20T01:50:10.509Z,79.40
2017-10-20T01:52:38.425Z,80.00
2017-10-20T01:55:04.861Z,79.90
2017-10-20T01:57:31.306Z,79.60
2017-10-20T01:59:57.761Z,79.70
2017-10-20T02:02:24.307Z,79.70
2017-10-20T02:04:52.237Z,79.80
2017-10-20T02:07:18.643Z,79.80
2017-10-20T02:09:45.799Z,79.80
2017-10-20T02:12:12.249Z,79.80
2017-10-20T02:14:38.695Z,79.50
2017-10-20T02:17:05.122Z,79.60
2017-10-20T02:19:31.523Z,79.60
2017-10-20T02:21:58.002Z,79.60
2017-10-20T02:24:24.469Z,79.70
2017-10-20T02:26:50.907Z,79.70
2017-10-20T02:29:17.333Z,80.00
2017-10-20T02:31:43.769Z,79.80
2017-10-20T02:34:10.948Z,80.30
2017-10-20T02:36:37.422Z,80.30
2017-10-20T02:39:03.854Z,80.30
2017-10-20T02:41:30.320Z,80.20
2017-10-20T02:43:57.520Z,79.80
2017-10-20T02:46:23.974Z,79.80
2017-10-20T02:48:50.395Z,80.20
2017-10-20T02:51:16.833Z,80.00
2017-10-20T02:53:43.268Z,80.10
2017-10-20T02:56:09.838Z,79.80
2017-10-20T02:58:36.286Z,80.10
2017-10-20T03:01:03.460Z,80.60
2017-10-20T03:03:29.888Z,80.60
2017-10-20T03:05:56.312Z,80.50
2017-10-20T03:08:22.924Z,80.50
2017-10-20T03:10:49.343Z,80.10
2017-10-20T03:13:15.779Z,80.80
2017-10-20T03:15:42.218Z,80.50
2017-10-20T03:18:08.842Z,80.70
2017-10-20T03:20:35.235Z,81.10
2017-10-20T03:23:01.656Z,80.90
2017-10-20T03:25:28.109Z,80.90
2017-10-20T03:27:54.531Z,80.70
2017-10-20T03:30:20.929Z,80.70
2017-10-20T03:32:48.080Z,79.80
2017-10-20T03:35:15.244Z,79.70
2017-10-20T03:37:42.454Z,79.50
2017-10-20T03:40:10.367Z,79.80
2017-10-20T03:42:36.773Z,79.80
2017-10-20T03:45:03.951Z,80.50
2017-10-20T03:47:31.108Z,80.90
2017-10-20T03:49:57.504Z,80.90
2017-10-20T03:52:23.925Z,81.00
2017-10-20T03:54:50.312Z,81.90
2017-10-20T03:57:16.749Z,81.20
2017-10-20T03:59:43.162Z,81.20
2017-10-20T04:02:09.567Z,81.00
2017-10-20T04:04:37.494Z,81.10
2017-10-20T04:07:03.938Z,81.10
2017-10-20T04:09:30.401Z,81.00
2017-10-20T04:11:58.392Z,80.70
2017-10-20T04:14:24.858Z,80.70
2017-10-20T04:16:51.362Z,81.00
2017-10-20T04:19:17.837Z,81.10
2017-10-20T04:21:44.252Z,81.50
2017-10-20T04:24:10.674Z,81.70
2017-10-20T04:26:37.145Z,81.80
2017-10-20T04:29:03.606Z,81.40
2017-10-20T04:31:30.782Z,82.30
2017-10-20T04:33:57.217Z,81.70
2017-10-20T04:36:23.668Z,81.50
2017-10-20T04:38:50.120Z,81.70
2017-10-20T04:41:16.555Z,81.90
2017-10-20T04:43:43.006Z,82.20
2017-10-20T04:46:09.391Z,81.80
2017-10-20T04:48:35.820Z,81.70
2017-10-20T04:51:02.245Z,82.10
2017-10-20T04:53:29.395Z,81.60
2017-10-20T04:55:55.846Z,81.60
2017-10-20T04:58:22.286Z,81.90
2017-10-20T05:00:48.701Z,81.70
2017-10-20T05:03:15.105Z,81.80
2017-10-20T05:05:42.295Z,82.20
2017-10-20T05:08:08.743Z,82.20
2017-10-20T05:10:35.154Z,82.20
2017-10-20T05:13:01.622Z,82.10
2017-10-20T05:15:28.066Z,82.10
2017-10-20T05:17:55.210Z,82.00
2017-10-20T05:20:21.627Z,82.00
2017-10-20T05:22:48.045Z,82.40
2017-10-20T05:25:14.531Z,82.40
2017-10-20T05:27:41.854Z,82.10
2017-10-20T05:30:09.760Z,82.10
2017-10-20T05:32:36.926Z,82.10
2017-10-20T05:35:03.447Z,82.00
2017-10-20T05:37:30.024Z,82.10
2017-10-20T05:39:56.434Z,82.00
2017-10-20T05:42:22.854Z,82.00
2017-10-20T05:44:50.073Z,82.30
2017-10-20T05:47:18.001Z,82.40
2017-10-20T05:49:44.476Z,82.30
2017-10-20T05:52:10.932Z,82.40
2017-10-20T05:54:38.116Z,82.30
2017-10-20T05:57:05.352Z,81.90
2017-10-20T05:59:31.796Z,81.90
2017-10-20T06:01:58.232Z,82.10
2017-10-20T06:04:24.684Z,82.60
2017-10-20T06:06:51.118Z,82.50
2017-10-20T06:09:17.530Z,82.60
2017-10-20T06:11:44.030Z,82.70
2017-10-20T06:14:10.458Z,82.50
2017-10-20T06:16:38.366Z,82.40
2017-10-20T06:19:04.766Z,82.40
2017-10-20T06:21:31.947Z,82.40
2017-10-20T06:23:58.374Z,82.20
2017-10-20T06:26:24.794Z,82.20
2017-10-20T06:28:52.024Z,82.20
2017-10-20T06:31:32.562Z,82.40
2017-10-20T06:33:59.806Z,82.60
2017-10-20T06:36:26.303Z,82.60
2017-10-20T06:38:52.749Z,82.50
2017-10-20T06:41:19.233Z,83.10
2017-10-20T06:43:45.654Z,83.00
2017-10-20T06:46:12.054Z,82.80
2017-10-20T06:48:38.535Z,81.50
2017-10-20T06:51:04.978Z,82.30
2017-10-20T06:53:31.436Z,81.40
2017-10-20T06:55:58.633Z,81.40
2017-10-20T06:58:25.097Z,81.30
2017-10-20T07:00:51.630Z,81.20
2017-10-20T07:03:18.108Z,81.10
2017-10-20T07:05:44.593Z,81.20
2017-10-20T07:08:11.103Z,81.40
2017-10-20T07:10:37.578Z,81.10
2017-10-20T07:13:04.027Z,81.50
2017-10-20T07:15:30.532Z,81.40
2017-10-20T07:17:57.740Z,81.80
2017-10-20T07:20:36.027Z,81.80
2017-10-20T07:23:02.523Z,81.50
2017-10-20T07:25:28.964Z,81.40
2017-10-20T07:27:56.088Z,82.20
2017-10-20T07:30:22.573Z,81.70
2017-10-20T07:32:49.108Z,81.70
2017-10-20T07:35:15.524Z,82.00
2017-10-20T07:37:42.750Z,82.50
2017-10-20T07:40:10.017Z,82.10
2017-10-20T07:42:37.355Z,82.10
2017-10-20T07:45:04.064Z,81.60
2017-10-20T07:47:30.461Z,82.10
2017-10-20T07:49:57.621Z,82.30
2017-10-20T07:52:24.058Z,82.30
2017-10-20T07:54:50.459Z,82.30
2017-10-20T07:57:16.888Z,82.10
2017-10-20T07:59:43.373Z,81.60
2017-10-20T08:02:09.786Z,81.90
2017-10-20T08:04:36.969Z,82.10
2017-10-20T08:07:03.380Z,82.10
2017-10-20T08:09:29.796Z,82.00
2017-10-20T08:11:56.947Z,82.40
2017-10-20T08:14:23.444Z,82.40
2017-10-20T08:16:49.916Z,82.00
2017-10-20T08:19:16.350Z,82.60
2017-10-20T08:21:42.778Z,82.40
2017-10-20T08:24:09.905Z,82.60
2017-10-20T08:26:37.062Z,83.10
2017-10-20T08:29:03.521Z,83.10
2017-10-20T08:31:30.001Z,82.70
2017-10-20T08:33:56.456Z,82.50
2017-10-20T08:36:23.613Z,82.10
2017-10-20T08:38:50.869Z,81.40
2017-10-20T08:41:17.343Z,81.30
2017-10-20T08:43:43.798Z,81.00
2017-10-20T08:46:10.395Z,80.30
2017-10-20T08:48:36.830Z,80.70
2017-10-20T08:51:03.265Z,81.10
2017-10-20T08:53:29.776Z,81.00
2017-10-20T08:55:56.284Z,80.60
2017-10-20T08:58:22.805Z,81.00
2017-10-20T09:00:49.246Z,81.30
2017-10-20T09:03:15.629Z,81.10
2017-10-20T09:05:42.937Z,80.00
2017-10-20T09:08:10.127Z,80.50
2017-10-20T09:10:37.243Z,80.00
2017-10-20T09:13:04.395Z,79.80
2017-10-20T09:15:30.780Z,79.20
2017-10-20T09:17:57.354Z,78.80
2017-10-20T09:20:23.778Z,78.40
2017-10-20T09:22:50.169Z,79.30
2017-10-20T09:25:16.605Z,78.90
2017-10-20T09:27:43.107Z,78.60
2017-10-20T09:30:09.652Z,78.50
2017-10-20T09:32:36.118Z,77.50
2017-10-20T09:35:02.634Z,78.60
2017-10-20T09:37:29.058Z,79.90
2017-10-20T09:39:56.221Z,78.00
2017-10-20T09:42:22.615Z,78.00
2017-10-20T09:44:49.111Z,76.90
2017-10-20T09:47:15.558Z,76.50
2017-10-20T09:49:41.964Z,76.30
2017-10-20T09:52:08.475Z,76.30
2017-10-20T09:54:35.654Z,75.50
2017-10-20T09:57:02.072Z,75.30
2017-10-20T09:59:28.468Z,75.70
2017-10-20T10:01:54.936Z,74.80
2017-10-20T10:04:21.379Z,75.20
2017-10-20T10:06:47.824Z,75.50
2017-10-20T10:09:14.269Z,74.50
2017-10-20T10:11:40.727Z,76.10
2017-10-20T10:14:07.165Z,75.80
2017-10-20T10:16:33.581Z,73.80
2017-10-20T10:19:00.004Z,73.40
2017-10-20T10:21:26.412Z,74.20
2017-10-20T10:23:52.815Z,73.80
2017-10-20T10:26:19.945Z,75.00
2017-10-20T10:28:46.348Z,75.00
2017-10-20T10:31:12.778Z,76.10
2017-10-20T10:33:39.166Z,75.50
2017-10-20T10:36:06.630Z,77.80
2017-10-20T10:38:33.761Z,78.00
2017-10-20T10:41:00.147Z,78.00
2017-10-20T10:43:26.560Z,78.90
2017-10-20T10:45:53.001Z,79.40
2017-10-20T10:48:19.420Z,76.80
2017-10-20T10:50:45.855Z,75.60
2017-10-20T10:53:12.268Z,75.20
2017-10-20T10:55:39.405Z,74.70
2017-10-20T10:58:05.821Z,74.60
2017-10-20T11:00:32.235Z,74.30
2017-10-20T11:02:58.693Z,75.00
2017-10-20T11:05:37.301Z,73.80
2017-10-20T11:08:16.010Z,73.10
2017-10-20T11:10:54.776Z,74.70
2017-10-20T11:13:21.983Z,72.50
2017-10-20T11:15:48.448Z,72.60
2017-10-20T11:18:15.608Z,70.50
2017-10-20T11:20:42.755Z,68.80
2017-10-20T11:23:09.166Z,68.80
2017-10-20T11:25:35.598Z,70.40
2017-10-20T11:28:02.018Z,70.80
2017-10-20T11:30:28.632Z,71.60
2017-10-20T11:32:55.086Z,72.60
2017-10-20T11:35:21.523Z,73.80
2017-10-20T11:37:48.052Z,73.50
2017-10-20T11:40:14.481Z,74.60
2017-10-20T11:42:40.945Z,73.00
2017-10-20T11:45:07.385Z,73.60
2017-10-20T11:47:33.850Z,72.40
2017-10-20T11:50:00.274Z,72.70
2017-10-20T11:52:27.465Z,71.70
2017-10-20T11:54:54.138Z,71.70
2017-10-20T11:57:20.539Z,72.10
2017-10-20T11:59:46.961Z,71.30
2017-10-20T12:02:13.770Z,71.70
2017-10-20T12:04:40.934Z,70.90
2017-10-20T12:07:07.337Z,70.80
2017-10-20T12:09:33.826Z,70.50
2017-10-20T12:12:00.343Z,70.30
2017-10-20T12:14:26.797Z,70.60
2017-10-20T12:16:53.323Z,70.00
2017-10-20T12:19:19.800Z,68.80
2017-10-20T12:21:46.205Z,68.40
2017-10-20T12:24:12.586Z,69.60
2017-10-20T12:26:39.737Z,68.90
2017-10-20T12:29:06.861Z,68.50
2017-10-20T12:31:33.265Z,68.50
2017-10-20T12:33:59.690Z,68.60
2017-10-20T12:36:26.103Z,67.60
2017-10-20T12:38:52.527Z,66.50
2017-10-20T12:41:19.655Z,66.60
2017-10-20T12:43:46.045Z,66.70
2017-10-20T12:46:12.423Z,66.80
2017-10-20T12:48:38.833Z,67.50
2017-10-20T12:51:05.240Z,66.60
2017-10-20T12:53:31.638Z,65.00
2017-10-20T12:55:58.779Z,65.30
2017-10-20T12:58:25.910Z,65.90
2017-10-20T13:00:52.329Z,65.70
2017-10-20T13:03:18.739Z,66.70
2017-10-20T13:05:45.197Z,65.40
2017-10-20T13:08:11.654Z,65.30
2017-10-20T13:10:38.830Z,64.60
2017-10-20T13:13:05.252Z,64.50
2017-10-20T13:15:32.457Z,63.30
2017-10-20T13:17:58.950Z,63.30
2017-10-20T13:20:25.409Z,62.70
2017-10-20T13:22:51.792Z,62.60
2017-10-20T13:25:18.939Z,63.30
2017-10-20T13:27:46.405Z,62.60
2017-10-20T13:30:13.575Z,62.80
2017-10-20T13:32:40.006Z,62.80
2017-10-20T13:35:06.397Z,62.90
2017-10-20T13:37:32.792Z,62.90
2017-10-20T13:39:59.203Z,62.60
2017-10-20T13:42:25.638Z,62.50
2017-10-20T13:44:52.024Z,62.90
2017-10-20T13:47:18.428Z,62.90
2017-10-20T13:49:44.789Z,63.00
2017-10-20T13:52:11.164Z,63.20
2017-10-20T13:54:37.576Z,63.10
2017-10-20T13:57:04.762Z,63.90
2017-10-20T13:59:31.144Z,63.30
2017-10-20T14:01:58.292Z,62.80
2017-10-20T14:04:24.692Z,62.70
2017-10-20T14:06:51.081Z,62.90
2017-10-20T14:09:18.241Z,62.50
2017-10-20T14:11:44.718Z,62.50
2017-10-20T14:14:11.111Z,62.30
2017-10-20T14:16:37.527Z,62.50
2017-10-20T14:19:03.954Z,62.10
2017-10-20T14:21:31.196Z,62.80
2017-10-20T14:23:58.340Z,63.50
2017-10-20T14:26:38.468Z,63.00
2017-10-20T14:29:17.873Z,63.80
2017-10-20T14:31:57.306Z,63.60
2017-10-20T14:34:23.705Z,63.40
2017-10-20T14:36:50.840Z,63.20
2017-10-20T14:39:17.248Z,63.70
2017-10-20T14:41:43.740Z,63.50
2017-10-20T14:44:10.911Z,63.60
2017-10-20T14:46:37.325Z,63.70
2017-10-20T14:49:04.469Z,64.10
2017-10-20T14:51:31.607Z,64.00
2017-10-20T14:53:58.037Z,64.00
2017-10-20T14:56:24.437Z,63.40
2017-10-20T14:58:50.830Z,63.40
2017-10-20T15:01:17.979Z,63.40
2017-10-20T15:03:44.430Z,63.40
2017-10-20T15:06:10.857Z,63.60
2017-10-20T15:08:37.244Z,63.90
2017-10-20T15:11:03.650Z,64.50
2017-10-20T15:13:30.081Z,64.30
2017-10-20T15:15:56.477Z,64.40
2017-10-20T15:18:23.672Z,65.20
2017-10-20T15:20:50.050Z,65.20
2017-10-20T15:23:17.168Z,66.00
2017-10-20T15:25:43.648Z,66.10
2017-10-20T15:28:10.064Z,66.60
2017-10-20T15:30:37.237Z,67.40
2017-10-20T15:33:03.681Z,67.40
2017-10-20T15:35:30.079Z,67.60
2017-10-20T15:37:56.476Z,68.00
2017-10-20T15:40:22.861Z,68.00
2017-10-20T15:42:49.266Z,69.10
2017-10-20T15:45:15.696Z,68.50
2017-10-20T15:47:42.830Z,68.10
2017-10-20T15:50:09.259Z,68.00
2017-10-20T15:52:35.715Z,68.10
2017-10-20T15:55:02.112Z,68.00
2017-10-20T15:57:28.495Z,68.30
2017-10-20T15:59:55.647Z,68.90
2017-10-20T16:02:22.787Z,69.10
2017-10-20T16:04:49.957Z,69.40
2017-10-20T16:07:16.398Z,69.50
2017-10-20T16:09:42.805Z,69.50
2017-10-20T16:12:09.962Z,70.60
2017-10-20T16:14:37.124Z,70.60
2017-10-20T16:17:03.512Z,70.60
2017-10-20T16:19:29.982Z,70.90
2017-10-20T16:21:57.145Z,70.20
2017-10-20T16:24:23.517Z,70.10
2017-10-20T16:26:49.908Z,69.80
2017-10-20T16:29:17.165Z,69.70
2017-10-20T16:31:43.532Z,69.80
2017-10-20T16:34:09.929Z,70.70
2017-10-20T16:36:36.298Z,70.70
2017-10-20T16:39:02.769Z,70.30
2017-10-20T16:41:29.225Z,70.90
2017-10-20T16:43:55.692Z,70.90
2017-10-20T16:46:22.086Z,72.50
2017-10-20T16:48:48.480Z,72.40
2017-10-20T16:51:14.860Z,72.60
2017-10-20T16:53:41.262Z,72.30
2017-10-20T16:56:08.404Z,71.90
2017-10-20T16:58:35.598Z,72.60
2017-10-20T17:01:02.021Z,72.50
2017-10-20T17:03:28.467Z,72.30
2017-10-20T17:05:54.914Z,73.20
2017-10-20T17:08:21.792Z,73.50
2017-10-20T17:10:48.159Z,74.50
2017-10-20T17:13:14.608Z,74.00
2017-10-20T17:15:40.997Z,73.80
2017-10-20T17:18:08.155Z,74.10
2017-10-20T17:20:35.340Z,75.20
2017-10-20T17:23:01.809Z,75.20
2017-10-20T17:25:28.224Z,75.40
2017-10-20T17:27:54.658Z,75.80
2017-10-20T17:30:21.078Z,75.90
2017-10-20T17:32:47.496Z,75.30
2017-10-20T17:35:13.925Z,74.50
2017-10-20T17:37:40.332Z,75.00
2017-10-20T17:40:06.745Z,74.90
2017-10-20T17:42:33.167Z,74.50
2017-10-20T17:44:59.634Z,74.40
2017-10-20T17:47:26.780Z,74.50
2017-10-20T17:49:53.946Z,74.20
2017-10-20T17:52:21.083Z,74.60
2017-10-20T17:54:48.232Z,74.90
2017-10-20T17:57:15.472Z,76.10
2017-10-20T17:59:42.656Z,75.60
2017-10-20T18:02:09.041Z,75.60
2017-10-20T18:04:35.472Z,75.50
2017-10-20T18:07:01.885Z,75.20
2017-10-20T18:09:28.269Z,75.00
2017-10-20T18:11:56.417Z,76.10
2017-10-20T18:14:22.841Z,76.10
2017-10-20T18:16:49.208Z,76.40
2017-10-20T18:19:15.616Z,76.80
2017-10-20T18:21:42.035Z,77.60
2017-10-20T18:24:09.944Z,77.80
2017-10-20T18:26:37.124Z,77.30
2017-10-20T18:29:04.290Z,77.30
2017-10-20T18:31:30.719Z,77.30
2017-10-20T18:33:57.177Z,77.30
2017-10-20T18:36:23.616Z,76.90
2017-10-20T18:38:50.059Z,76.80
2017-10-20T18:41:16.488Z,77.00
2017-10-20T18:43:42.893Z,77.30
2017-10-20T18:46:09.264Z,77.30
2017-10-20T18:48:36.476Z,77.00
2017-10-20T18:51:02.954Z,76.50
2017-10-20T18:53:29.396Z,76.70
2017-10-20T18:55:55.813Z,76.50
2017-10-20T18:58:22.973Z,77.20
2017-10-20T19:00:50.119Z,77.00
2017-10-20T19:03:17.273Z,78.00
2017-10-20T19:05:44.419Z,78.50
2017-10-20T19:08:11.594Z,78.40
2017-10-20T19:10:38.004Z,78.40
2017-10-20T19:13:05.178Z,77.50
2017-10-20T19:15:31.573Z,77.50
2017-10-20T19:17:58.789Z,77.50
2017-10-20T19:20:25.227Z,77.50
2017-10-20T19:22:52.557Z,77.10
2017-10-20T19:25:18.981Z,77.00
2017-10-20T19:27:45.435Z,77.90
2017-10-20T19:30:11.848Z,78.40
2017-10-20T19:32:38.246Z,78.70
2017-10-20T19:35:04.657Z,79.20
2017-10-20T19:37:31.043Z,79.40
2017-10-20T19:39:57.423Z,79.80
2017-10-20T19:42:23.825Z,80.00
2017-10-20T19:44:50.208Z,80.00
2017-10-20T19:47:17.452Z,80.00
2017-10-20T19:49:44.598Z,80.90
2017-10-20T19:52:11.767Z,80.70
2017-10-20T19:54:38.149Z,81.00
2017-10-20T19:57:04.558Z,80.30
2017-10-20T19:59:30.986Z,80.00
2017-10-20T20:01:57.385Z,80.20
2017-10-20T20:04:23.812Z,79.80
2017-10-20T20:06:50.965Z,80.80
2017-10-20T20:09:17.449Z,79.90
2017-10-20T20:11:43.897Z,80.50
2017-10-20T20:14:10.289Z,80.20
2017-10-20T20:16:36.698Z,80.20
2017-10-20T20:19:04.609Z,80.00
2017-10-20T20:21:31.041Z,80.00
2017-10-20T20:23:57.477Z,79.40
2017-10-20T20:26:23.908Z,79.20
2017-10-20T20:28:50.375Z,79.10
2017-10-20T20:31:18.791Z,79.40
2017-10-20T20:33:45.978Z,80.10
2017-10-20T20:36:12.486Z,80.00
2017-10-20T20:38:38.933Z,79.50
2017-10-20T20:41:05.359Z,79.40
2017-10-20T20:43:31.803Z,79.80
2017-10-20T20:45:58.241Z,80.30
2017-10-20T20:48:24.655Z,79.40
2017-10-20T20:50:51.828Z,79.00
2017-10-20T20:53:18.211Z,79.00
2017-10-20T20:55:44.601Z,79.10
2017-10-20T20:58:11.026Z,79.10
2017-10-20T21:00:37.443Z,78.90
2017-10-20T21:03:03.839Z,78.40
2017-10-20T21:05:31.004Z,79.00
2017-10-20T21:07:58.107Z,78.80
2017-10-20T21:10:24.536Z,78.80
2017-10-20T21:12:50.936Z,78.70
2017-10-20T21:15:17.412Z,78.90
2017-10-20T21:17:43.882Z,78.70
2017-10-20T21:20:10.289Z,78.40
2017-10-20T21:22:36.702Z,79.10
2017-10-20T21:25:03.135Z,79.10
2017-10-20T21:27:29.515Z,79.10
2017-10-20T21:29:56.668Z,78.30
2017-10-20T21:32:23.830Z,77.90
2017-10-20T21:34:50.952Z,78.00
2017-10-20T21:37:17.357Z,78.00
2017-10-20T21:39:43.781Z,78.10
2017-10-20T21:42:10.195Z,78.30
2017-10-20T21:44:36.676Z,78.20
2017-10-20T21:47:03.073Z,79.00
2017-10-20T21:49:29.528Z,79.00
2017-10-20T21:51:56.098Z,78.80
2017-10-20T21:54:23.233Z,77.80
2017-10-20T21:56:49.865Z,77.80
2017-10-20T21:59:16.278Z,78.40
2017-10-20T22:01:44.318Z,78.50
2017-10-20T22:04:10.725Z,78.50
2017-10-20T22:06:37.874Z,78.80
2017-10-20T22:09:04.311Z,78.80
2017-10-20T22:11:31.472Z,78.20
2017-10-20T22:13:57.901Z,78.20
2017-10-20T22:16:25.041Z,79.00
2017-10-20T22:18:52.205Z,78.70
2017-10-20T22:21:18.613Z,78.70
2017-10-20T22:23:45.787Z,78.50
2017-10-20T22:26:12.199Z,78.50
2017-10-20T22:28:38.638Z,78.30
2017-10-20T22:31:06.287Z,78.20
2017-10-20T22:33:32.746Z,78.10
2017-10-20T22:35:59.167Z,78.60
2017-10-20T22:38:25.580Z,78.50
2017-10-20T22:40:52.058Z,79.40
2017-10-20T22:43:18.497Z,80.10
2017-10-20T22:45:44.902Z,79.90
2017-10-20T22:48:12.060Z,79.00
2017-10-20T22:50:38.473Z,79.00
2017-10-20T22:53:05.676Z,78.40
2017-10-20T22:55:32.083Z,78.40
2017-10-20T22:57:59.265Z,78.00
2017-10-20T23:00:25.664Z,78.20
2017-10-20T23:02:52.073Z,78.30
2017-10-20T23:05:19.217Z,78.80
2017-10-20T23:07:46.378Z,79.20
2017-10-20T23:10:12.798Z,79.20
2017-10-20T23:12:39.996Z,78.70
2017-10-20T23:15:06.411Z,79.10
2017-10-20T23:17:32.855Z,79.00
2017-10-20T23:19:59.262Z,78.70
2017-10-20T23:22:26.429Z,78.70
2017-10-20T23:24:52.908Z,78.70
2017-10-20T23:27:19.290Z,78.60
2017-10-20T23:29:45.702Z,79.30
2017-10-20T23:32:12.906Z,79.00
2017-10-20T23:34:39.320Z,78.60
2017-10-20T23:37:05.717Z,78.20
2017-10-20T23:39:32.130Z,79.20
2017-10-20T23:42:00.020Z,79.40
2017-10-20T23:44:26.428Z,79.30
2017-10-20T23:46:52.819Z,79.50
2017-10-20T23:49:19.212Z,79.60
2017-10-20T23:51:45.613Z,79.30
2017-10-20T23:54:12.100Z,79.70
2017-10-20T23:56:38.493Z,78.90
2017-10-20T23:59:05.849Z,79.20
